Terminal Aerodrome Forecast
Issued by NWS Binghamton, NY

Home | Current Version | Previous Version | Text Only | Print | Product List | Glossary On
Versions: 1 2 3 4 5 6 7 8 9 10 11 12 13 14 15 16 17 18 19 20 21 22 23 24 25 26
436
FTUS41 KBGM 241727
TAFSYR
TAF
KSYR 241727Z 2418/2518 33009KT 4SM -SN OVC008
      TEMPO 2418/2421 2SM -SN OVC003
     FM242100 31008KT P6SM OVC008
     FM250600 28008KT P6SM OVC010=

USA.gov is the U.S. government's official web portal to all federal, state and local government web resources and services.